Time;durP1;ratioP1;P1;durP2;ratioP2;P2;SDS_P1;SDS_P2;PMS_P1;PMS_P2;Temp;Humidity;BMP_temperature;BMP_pressure;BME280_temperature;BME280_humidity;BME280_pressure;Samples;Min_cycle;Max_cycle;Signal;HPM_P1;HPM_P2
2020/12/31 00:01:33;;;;;;;46.58;24.72;;;;;;;1.05;92.47;100475.46;1699669;84;21322;-80
2020/12/31 00:04:39;;;;;;;42.17;21.17;;;;;;;1.04;92.48;100485.87;1698758;84;21319;-79
2020/12/31 00:07:45;;;;;;;40.05;24.05;;;;;;;1.04;92.48;100473.26;1698698;84;21220;-80
2020/12/31 00:10:51;;;;;;;44.08;26.17;;;;;;;1.04;92.41;100478.64;1698795;84;21315;-80
2020/12/31 00:13:58;;;;;;;41.13;24.20;;;;;;;1.00;92.27;100481.18;1698856;84;21370;-80
2020/12/31 00:17:05;;;;;;;50.85;25.68;;;;;;;0.93;92.21;100479.89;1700084;84;21378;-80
2020/12/31 00:20:13;;;;;;;45.17;24.92;;;;;;;0.85;92.28;100477.77;1698563;83;21362;-80
2020/12/31 00:23:18;;;;;;;40.38;23.75;;;;;;;0.80;92.39;100479.04;1700939;84;21280;-80
2020/12/31 00:26:24;;;;;;;43.13;25.50;;;;;;;0.73;92.46;100484.87;1700162;84;21197;-80
2020/12/31 00:29:30;;;;;;;39.92;22.50;;;;;;;0.72;92.56;100491.23;1700155;84;21849;-79
2020/12/31 00:32:36;;;;;;;37.33;21.02;;;;;;;0.70;92.60;100486.42;1699110;84;21343;-80
2020/12/31 00:35:42;;;;;;;44.00;23.07;;;;;;;0.70;92.66;100483.73;1699235;84;21240;-81
2020/12/31 00:38:51;;;;;;;38.17;23.70;;;;;;;0.71;92.69;100484.14;1699937;84;21311;-80
2020/12/31 00:41:57;;;;;;;44.58;23.65;;;;;;;0.69;92.62;100484.71;1699752;84;21209;-80
2020/12/31 00:45:03;;;;;;;39.98;23.45;;;;;;;0.65;92.54;100485.04;1698761;83;22596;-80
2020/12/31 00:48:08;;;;;;;47.10;26.30;;;;;;;0.57;92.53;100474.83;1698814;84;21312;-80
2020/12/31 00:51:14;;;;;;;43.20;24.12;;;;;;;0.50;92.58;100478.42;1700127;84;21311;-81
2020/12/31 00:54:20;;;;;;;43.85;24.52;;;;;;;0.44;92.65;100473.48;1676551;84;21280;-80
2020/12/31 00:57:25;;;;;;;42.50;25.12;;;;;;;0.41;92.72;100478.20;1710500;82;21320;-80
2020/12/31 01:00:31;;;;;;;45.50;25.23;;;;;;;0.37;92.84;100477.55;1738317;82;21702;-80
2020/12/31 01:03:38;;;;;;;44.40;24.10;;;;;;;0.33;92.94;100474.73;1738118;82;21277;-80
2020/12/31 01:06:45;;;;;;;48.90;25.50;;;;;;;0.28;93.09;100473.30;1738142;82;21861;-79
2020/12/31 01:09:51;;;;;;;47.75;25.05;;;;;;;0.22;93.28;100469.22;1738089;82;21202;-80
2020/12/31 01:12:58;;;;;;;53.17;26.97;;;;;;;0.18;93.53;100470.39;1738198;82;21297;-80
2020/12/31 01:16:02;;;;;;;50.45;25.08;;;;;;;0.14;93.74;100465.73;1738281;82;21269;-80
2020/12/31 01:19:09;;;;;;;42.58;25.23;;;;;;;0.10;93.94;100460.18;1738168;82;21277;-80
2020/12/31 01:22:14;;;;;;;57.75;27.17;;;;;;;0.07;94.14;100452.80;1736918;82;21320;-81
2020/12/31 01:25:19;;;;;;;43.28;24.65;;;;;;;0.05;94.34;100454.72;1736946;82;21238;-80
2020/12/31 01:28:25;;;;;;;47.20;25.82;;;;;;;0.03;94.51;100456.66;1735924;82;21249;-80
2020/12/31 01:31:33;;;;;;;45.45;24.72;;;;;;;0.01;94.63;100452.74;1737241;82;21309;-79
2020/12/31 01:34:38;;;;;;;49.95;27.20;;;;;;;0.02;94.74;100451.77;1735794;82;22545;-80
2020/12/31 01:37:43;;;;;;;45.73;26.30;;;;;;;0.01;94.78;100452.74;1737281;82;21178;-80
2020/12/31 01:40:54;;;;;;;52.03;27.20;;;;;;;0.01;94.85;100439.78;1736799;82;21345;-79
2020/12/31 01:44:14;;;;;;;51.60;27.60;;;;;;;0.01;94.90;100436.61;1738156;82;21154;-80
2020/12/31 01:47:21;;;;;;;55.83;30.02;;;;;;;0.02;94.94;100432.94;1736915;82;21816;-79
2020/12/31 01:50:27;;;;;;;51.42;27.50;;;;;;;-0.01;94.93;100425.94;1737048;82;21317;-81
2020/12/31 01:53:32;;;;;;;56.60;28.20;;;;;;;-0.04;94.98;100423.97;1735818;82;21340;-80
2020/12/31 01:56:39;;;;;;;63.65;31.35;;;;;;;-0.02;95.16;100431.42;1737727;82;21756;-80
2020/12/31 01:59:45;;;;;;;72.20;31.00;;;;;;;0.05;95.39;100436.78;1727614;82;21317;-81
2020/12/31 02:02:51;;;;;;;65.97;30.17;;;;;;;0.19;95.62;100439.37;1732562;83;21808;-80
2020/12/31 02:05:55;;;;;;;65.22;31.90;;;;;;;0.34;95.82;100453.57;1732648;83;21283;-81
2020/12/31 02:09:01;;;;;;;70.95;35.50;;;;;;;0.52;95.91;100444.69;1727287;83;21286;-80
2020/12/31 02:12:13;;;;;;;84.10;40.83;;;;;;;0.64;95.93;100451.88;1732594;83;21190;-79
2020/12/31 02:15:25;;;;;;;71.75;32.13;;;;;;;0.76;95.88;100479.28;1732627;83;21714;-80
2020/12/31 02:18:30;;;;;;;59.80;30.12;;;;;;;0.91;95.85;100461.16;1727217;83;21290;-80
2020/12/31 02:21:38;;;;;;;62.58;28.80;;;;;;;1.00;95.52;100450.20;1727238;83;21222;-80
2020/12/31 02:24:44;;;;;;;48.70;25.48;;;;;;;1.04;95.24;100475.95;1727258;83;21285;-80
2020/12/31 02:27:49;;;;;;;50.43;26.48;;;;;;;1.13;95.00;100446.10;1727135;83;21844;-80
2020/12/31 02:30:55;;;;;;;49.98;25.82;;;;;;;1.12;94.54;100457.86;1727236;83;21277;-80
2020/12/31 02:34:00;;;;;;;44.70;22.77;;;;;;;1.10;94.31;100451.25;1726584;83;21346;-80
2020/12/31 02:37:06;;;;;;;42.23;22.80;;;;;;;1.09;94.16;100453.58;1727207;83;21277;-80
2020/12/31 02:40:11;;;;;;;41.37;21.93;;;;;;;1.11;94.12;100442.67;1727286;83;21167;-80
2020/12/31 02:43:10;;;;;;;37.13;20.48;;;;;;;1.15;94.16;100449.56;1727165;83;21318;-80
2020/12/31 02:46:19;;;;;;;37.65;20.23;;;;;;;1.18;94.27;100463.68;1727128;83;21282;-80
2020/12/31 02:49:23;;;;;;;43.58;22.05;;;;;;;1.21;94.33;100456.70;1727293;83;21164;-80
2020/12/31 02:52:28;;;;;;;42.48;22.15;;;;;;;1.18;94.35;100444.81;1727162;83;21289;-81
2020/12/31 02:55:33;;;;;;;40.92;20.08;;;;;;;1.15;94.36;100454.95;1727076;83;21159;-80
2020/12/31 02:58:39;;;;;;;41.65;21.77;;;;;;;1.13;94.43;100452.38;1726959;83;21269;-80
2020/12/31 03:01:45;;;;;;;31.40;19.27;;;;;;;1.14;94.52;100446.50;1726215;83;22663;-80
2020/12/31 03:04:50;;;;;;;39.42;21.23;;;;;;;1.11;94.54;100444.02;1725329;83;21313;-80
2020/12/31 03:07:56;;;;;;;42.43;22.70;;;;;;;1.05;94.60;100437.26;1724867;83;21884;-80
2020/12/31 03:11:01;;;;;;;35.78;20.70;;;;;;;0.99;94.70;100433.19;1726237;83;21305;-80
2020/12/31 03:14:08;;;;;;;38.60;20.92;;;;;;;0.95;94.88;100433.52;1725854;83;21622;-81
2020/12/31 03:17:14;;;;;;;42.40;21.95;;;;;;;0.94;95.13;100438.05;1726077;83;21376;-80
2020/12/31 03:20:19;;;;;;;41.55;23.12;;;;;;;0.97;95.37;100428.87;1724784;83;21309;-81
2020/12/31 03:23:25;;;;;;;31.35;20.12;;;;;;;0.97;95.55;100434.25;1731799;83;21199;-80
2020/12/31 03:26:30;;;;;;;37.55;20.27;;;;;;;0.97;95.73;100440.50;1732724;83;21277;-80
2020/12/31 03:29:35;;;;;;;41.83;21.27;;;;;;;0.98;95.93;100429.23;1727388;83;21274;-81
2020/12/31 03:32:34;;;;;;;40.48;21.60;;;;;;;0.94;96.18;100424.58;1732121;83;21187;-80
2020/12/31 03:35:26;;;;;;;37.58;19.00;;;;;;;0.92;96.49;100427.86;1730468;83;21218;-80
2020/12/31 03:38:32;;;;;;;41.50;19.50;;;;;;;0.93;96.79;100436.80;1725908;83;21313;-80
2020/12/31 03:41:37;;;;;;;30.70;17.02;;;;;;;0.94;97.16;100437.16;1731616;83;21852;-80
2020/12/31 03:44:43;;;;;;;30.85;17.67;;;;;;;0.93;97.50;100450.26;1731292;83;21308;-80
2020/12/31 03:47:49;;;;;;;34.60;19.98;;;;;;;0.94;97.72;100448.83;1725064;83;21918;-81
2020/12/31 03:50:54;;;;;;;29.75;17.17;;;;;;;0.93;97.94;100448.42;1731739;83;21368;-80
2020/12/31 03:53:59;;;;;;;39.98;20.15;;;;;;;0.91;98.14;100453.56;1731649;83;21871;-79
2020/12/31 03:57:04;;;;;;;29.70;17.48;;;;;;;0.88;98.36;100439.82;1726150;83;21365;-81
2020/12/31 04:00:12;;;;;;;44.30;20.35;;;;;;;0.86;98.57;100446.31;1726096;83;21179;-80
2020/12/31 04:03:18;;;;;;;34.27;19.80;;;;;;;0.85;98.81;100431.09;1698439;84;21929;-80
2020/12/31 04:06:24;;;;;;;27.15;17.75;;;;;;;0.81;99.04;100442.59;1698631;84;21340;-80
2020/12/31 04:09:30;;;;;;;28.73;16.50;;;;;;;0.75;99.23;100437.17;1698555;84;21807;-80
2020/12/31 04:12:37;;;;;;;27.45;16.60;;;;;;;0.69;99.39;100441.64;1698389;84;21304;-79
2020/12/31 04:15:42;;;;;;;28.07;16.75;;;;;;;0.68;99.55;100435.88;1697521;84;21870;-80
2020/12/31 04:18:47;;;;;;;23.83;15.25;;;;;;;0.64;99.71;100431.69;1698413;84;21324;-80
2020/12/31 04:21:54;;;;;;;26.02;16.75;;;;;;;0.60;99.87;100442.78;1698439;84;21307;-80
2020/12/31 04:24:59;;;;;;;26.68;17.00;;;;;;;0.59;100.00;100440.58;1698195;84;21748;-80
2020/12/31 04:28:06;;;;;;;30.25;17.90;;;;;;;0.58;100.00;100437.52;1698516;84;21331;-80
2020/12/31 04:31:12;;;;;;;32.25;17.73;;;;;;;0.59;100.00;100428.47;1698461;84;21307;-80
2020/12/31 04:34:17;;;;;;;25.70;16.37;;;;;;;0.57;100.00;100433.59;1698227;84;21323;-79
2020/12/31 04:37:23;;;;;;;30.00;16.37;;;;;;;0.55;100.00;100436.38;1699381;84;21340;-79
2020/12/31 04:40:29;;;;;;;32.48;18.50;;;;;;;0.58;100.00;100453.66;1699570;84;21291;-80
2020/12/31 04:43:34;;;;;;;27.70;16.60;;;;;;;0.61;100.00;100444.04;1699373;84;21348;-79
2020/12/31 04:46:39;;;;;;;33.63;18.67;;;;;;;0.60;100.00;100443.64;1699458;84;21276;-80
2020/12/31 04:49:53;;;;;;;29.70;17.82;;;;;;;0.57;100.00;100439.84;1699522;84;21268;-79
2020/12/31 04:52:58;;;;;;;32.25;17.73;;;;;;;0.53;100.00;100434.30;1699511;84;21859;-80
2020/12/31 04:56:04;;;;;;;30.10;17.48;;;;;;;0.50;100.00;100445.27;1679796;84;21363;-80
2020/12/31 04:59:13;;;;;;;29.07;17.75;;;;;;;0.50;100.00;100445.27;1698151;84;21348;-80
2020/12/31 05:02:19;;;;;;;27.17;16.17;;;;;;;0.50;100.00;100460.07;1710110;82;21404;-80
2020/12/31 05:05:25;;;;;;;25.32;16.77;;;;;;;0.51;100.00;100472.55;1731517;83;21320;-80
2020/12/31 05:08:36;;;;;;;26.80;16.37;;;;;;;0.51;100.00;100457.26;1731665;83;21301;-80
2020/12/31 05:11:52;;;;;;;22.65;14.38;;;;;;;0.49;100.00;100459.21;1724965;83;21924;-80
2020/12/31 05:14:58;;;;;;;30.20;19.65;;;;;;;0.49;100.00;100457.01;1732694;83;21305;-80
2020/12/31 05:18:03;;;;;;;31.97;18.00;;;;;;;0.49;100.00;100470.47;1732811;83;21222;-80
2020/12/31 05:21:08;;;;;;;28.50;17.57;;;;;;;0.45;100.00;100464.43;1727343;83;21274;-80
2020/12/31 05:24:13;;;;;;;26.73;16.48;;;;;;;0.44;100.00;100471.28;1732613;83;21278;-80
2020/12/31 05:27:36;;;;;;;27.80;17.32;;;;;;;0.43;100.00;100464.18;1732577;83;21170;-80
2020/12/31 05:30:43;;;;;;;30.57;18.95;;;;;;;0.41;100.00;100453.98;1725188;83;21832;-79
2020/12/31 05:33:48;;;;;;;35.23;20.68;;;;;;;0.40;100.00;100468.42;1688747;83;21277;-80
2020/12/31 05:36:54;;;;;;;55.12;29.27;;;;;;;0.41;100.00;100475.03;1732734;83;21304;-80
2020/12/31 05:40:13;;;;;;;46.20;23.75;;;;;;;0.44;100.00;100473.97;1727241;83;21804;-80
2020/12/31 05:43:20;;;;;;;39.58;21.45;;;;;;;0.44;100.00;100480.20;1732915;83;21159;-80
2020/12/31 05:46:25;;;;;;;31.12;19.73;;;;;;;0.48;100.00;100484.91;1712434;83;21836;-80
2020/12/31 05:49:33;;;;;;;27.90;17.07;;;;;;;0.47;100.00;100469.23;1731213;82;21169;-80
2020/12/31 05:52:47;;;;;;;26.95;17.30;;;;;;;0.45;100.00;100481.06;1711605;83;21309;-79
2020/12/31 05:55:51;;;;;;;26.52;16.23;;;;;;;0.43;100.00;100495.13;1727174;83;21294;-80
2020/12/31 05:58:57;;;;;;;29.63;16.42;;;;;;;0.47;100.00;100491.23;1732038;83;21321;-79
2020/12/31 06:02:10;;;;;;;30.43;16.42;;;;;;;0.47;100.00;100492.58;1731603;83;21337;-80
2020/12/31 06:05:20;;;;;;;24.87;16.70;;;;;;;0.50;100.00;100481.60;1737744;82;21324;-79
2020/12/31 06:08:26;;;;;;;20.57;13.03;;;;;;;0.54;100.00;100499.27;1729766;82;21348;-79
2020/12/31 06:11:38;;;;;;;23.07;13.75;;;;;;;0.54;100.00;100491.19;1700801;84;21344;-80
2020/12/31 06:14:44;;;;;;;24.37;15.90;;;;;;;0.53;100.00;100486.78;1701069;83;21332;-80
2020/12/31 06:17:53;;;;;;;22.32;14.10;;;;;;;0.51;100.00;100486.02;1728229;83;21273;-79
2020/12/31 06:21:05;;;;;;;22.85;15.75;;;;;;;0.51;100.00;100472.55;1731238;83;21227;-79
2020/12/31 06:24:11;;;;;;;21.73;14.80;;;;;;;0.47;100.00;100475.97;1730164;83;21899;-81
2020/12/31 06:27:19;;;;;;;20.57;13.55;;;;;;;0.47;100.00;100479.12;1705410;81;21615;-79
2020/12/31 06:30:36;;;;;;;16.10;10.75;;;;;;;0.48;100.00;100468.27;1716971;81;21882;-80
2020/12/31 06:33:51;;;;;;;20.12;13.32;;;;;;;0.46;100.00;100463.94;1719035;83;21211;-80
2020/12/31 06:36:57;;;;;;;26.42;14.38;;;;;;;0.46;100.00;100481.44;1724552;81;21241;-79
2020/12/31 06:40:28;;;;;;;30.97;13.65;;;;;;;0.48;100.00;100469.61;1709620;83;21305;-81
2020/12/31 06:43:42;;;;;;;23.60;14.40;;;;;;;0.51;100.00;100479.28;1707241;82;21310;-80
2020/12/31 06:46:53;;;;;;;22.87;13.43;;;;;;;0.50;100.00;100462.77;1710641;83;21342;-80
2020/12/31 06:49:59;;;;;;;22.05;13.45;;;;;;;0.50;100.00;100474.87;1731107;83;21278;-80
2020/12/31 06:53:05;;;;;;;21.65;14.15;;;;;;;0.51;100.00;100469.38;1724962;81;21313;-80
2020/12/31 06:56:17;;;;;;;19.02;12.98;;;;;;;0.50;100.00;100469.48;1721228;83;21273;-80
2020/12/31 06:59:47;;;;;;;26.73;15.10;;;;;;;0.51;100.00;100469.86;1731313;81;21777;-80
2020/12/31 07:02:53;;;;;;;23.90;14.07;;;;;;;0.56;100.00;100473.58;1732233;83;21183;-80
2020/12/31 07:06:00;;;;;;;29.25;16.10;;;;;;;0.58;100.00;100465.78;1729119;83;21150;-80
2020/12/31 07:09:15;;;;;;;27.27;16.62;;;;;;;0.59;100.00;100465.30;1703443;83;21293;-80
2020/12/31 07:12:20;;;;;;;38.80;20.25;;;;;;;0.62;100.00;100469.98;1725864;81;21353;-80
2020/12/31 07:15:27;;;;;;;51.85;27.55;;;;;;;0.65;100.00;100471.09;1704826;83;21301;-80
2020/12/31 07:18:33;;;;;;;49.58;26.75;;;;;;;0.67;100.00;100466.96;1710383;83;21321;-79
2020/12/31 07:21:40;;;;;;;40.28;22.15;;;;;;;0.71;100.00;100477.41;1714430;83;21860;-79
2020/12/31 07:25:05;;;;;;;30.12;19.70;;;;;;;0.74;100.00;100473.12;1719567;81;21994;-80
2020/12/31 07:28:10;;;;;;;32.48;19.35;;;;;;;0.76;100.00;100473.04;1732994;81;21369;-81
2020/12/31 07:31:16;;;;;;;48.20;23.67;;;;;;;0.75;100.00;100478.91;1726703;81;21847;-80
2020/12/31 07:34:34;;;;;;;62.23;30.05;;;;;;;0.80;100.00;100482.62;1729032;81;21226;-79
2020/12/31 07:37:39;;;;;;;50.43;27.02;;;;;;;0.86;100.00;100486.70;1704763;84;21317;-79
2020/12/31 07:40:53;;;;;;;66.20;34.25;;;;;;;0.89;100.00;100486.46;1719002;82;21276;-80
2020/12/31 07:43:59;;;;;;;79.15;38.80;;;;;;;0.89;100.00;100487.81;1730380;82;21293;-80
2020/12/31 07:47:05;;;;;;;53.33;30.08;;;;;;;0.87;100.00;100484.37;1730331;82;21289;-79
2020/12/31 07:50:11;;;;;;;40.65;23.98;;;;;;;0.84;100.00;100490.83;1700060;83;21883;-80
2020/12/31 07:53:17;;;;;;;37.45;19.87;;;;;;;0.81;100.00;100487.52;1724997;83;21316;-80
2020/12/31 07:56:23;;;;;;;28.75;17.35;;;;;;;0.80;100.00;100485.77;1722703;82;21928;-80
2020/12/31 07:59:29;;;;;;;28.62;16.97;;;;;;;0.78;100.00;100489.08;1716269;83;21328;-80
2020/12/31 08:02:35;;;;;;;27.05;15.88;;;;;;;0.78;100.00;100482.34;1725231;83;21321;-79
2020/12/31 08:05:41;;;;;;;26.70;16.82;;;;;;;0.79;100.00;100470.11;1718111;81;21791;-81
2020/12/31 08:08:48;;;;;;;39.95;21.82;;;;;;;0.81;100.00;100468.67;1729335;82;21979;-80
2020/12/31 08:11:53;;;;;;;29.98;17.42;;;;;;;0.82;100.00;100469.04;1723259;81;21285;-80
2020/12/31 08:15:00;;;;;;;37.30;21.57;;;;;;;0.84;100.00;100468.43;1691835;82;21374;-80
2020/12/31 08:18:07;;;;;;;53.52;25.82;;;;;;;0.86;100.00;100468.70;1727340;82;21308;-80
2020/12/31 08:21:13;;;;;;;37.10;21.30;;;;;;;0.87;100.00;100461.48;1730836;82;21210;-81
2020/12/31 08:24:18;;;;;;;33.78;20.00;;;;;;;0.91;100.00;100465.69;1733640;81;21796;-81
2020/12/31 08:27:27;;;;;;;48.58;27.93;;;;;;;0.94;100.00;100456.02;1706627;82;21641;-81
2020/12/31 08:30:41;;;;;;;109.70;53.13;;;;;;;0.98;100.00;100452.12;1720830;81;21351;-81
2020/12/31 08:33:47;;;;;;;134.60;59.53;;;;;;;1.01;100.00;100450.58;1725294;81;21297;-81
2020/12/31 08:36:58;;;;;;;127.42;60.43;;;;;;;0.99;100.00;100449.34;1734068;82;21183;-80
2020/12/31 08:40:05;;;;;;;171.50;77.60;;;;;;;1.03;100.00;100452.66;1713063;81;21219;-80
2020/12/31 08:43:11;;;;;;;145.32;64.05;;;;;;;1.07;100.00;100442.52;1730961;81;21194;-80
2020/12/31 08:46:28;;;;;;;115.50;51.30;;;;;;;1.14;100.00;100444.67;1728110;82;21614;-81
2020/12/31 08:49:34;;;;;;;93.03;45.50;;;;;;;1.21;100.00;100444.57;1741291;81;21682;-80
2020/12/31 08:52:38;;;;;;;126.12;57.45;;;;;;;1.29;100.00;100442.67;1714760;82;21772;-79
2020/12/31 08:55:45;;;;;;;157.47;69.40;;;;;;;1.39;100.00;100453.13;1735378;82;21194;-80
2020/12/31 08:58:50;;;;;;;138.37;57.80;;;;;;;1.43;100.00;100451.08;1730116;81;21359;-81
2020/12/31 09:01:56;;;;;;;98.10;48.20;;;;;;;1.46;100.00;100456.25;1728177;81;21329;-80
2020/12/31 09:05:19;;;;;;;71.37;36.10;;;;;;;1.48;100.00;100459.19;1732040;82;21340;-81
2020/12/31 09:08:24;;;;;;;47.30;25.17;;;;;;;1.45;100.00;100450.46;1689142;83;21283;-80
2020/12/31 09:11:33;;;;;;;46.18;25.72;;;;;;;1.36;100.00;100439.02;1694978;83;21267;-80
2020/12/31 09:14:45;;;;;;;87.92;41.33;;;;;;;1.28;99.78;100435.56;1681980;83;21165;-80
2020/12/31 09:17:51;;;;;;;92.85;47.10;;;;;;;1.22;99.53;100434.65;1687458;83;21821;-80
2020/12/31 09:20:55;;;;;;;109.85;52.65;;;;;;;1.20;99.48;100434.77;1693885;84;21331;-80
2020/12/31 09:24:01;;;;;;;129.25;59.30;;;;;;;1.20;99.47;100434.77;1651254;84;21363;-80
2020/12/31 09:27:07;;;;;;;105.55;55.05;;;;;;;1.23;99.53;100435.91;1686437;84;21881;-79
2020/12/31 09:30:13;;;;;;;99.07;48.35;;;;;;;1.24;99.54;100427.33;1696774;83;22150;-81
2020/12/31 09:33:25;;;;;;;85.92;45.25;;;;;;;1.25;99.50;100430.39;1697234;84;21338;-80
2020/12/31 09:36:31;;;;;;;76.92;39.50;;;;;;;1.28;99.50;100430.17;1696186;84;21201;-80
2020/12/31 09:39:38;;;;;;;58.15;31.30;;;;;;;1.30;99.50;100428.70;1698541;83;21314;-80
2020/12/31 09:42:44;;;;;;;46.55;26.35;;;;;;;1.33;99.47;100421.75;1698498;84;21312;-79
2020/12/31 09:45:49;;;;;;;54.95;29.42;;;;;;;1.36;99.47;100422.84;1699139;83;21709;-80
2020/12/31 09:48:56;;;;;;;46.23;24.90;;;;;;;1.39;99.48;100415.89;1698588;84;21324;-79
2020/12/31 09:52:02;;;;;;;76.15;37.30;;;;;;;1.46;99.51;100413.13;1696218;84;21351;-77
2020/12/31 09:55:07;;;;;;;110.75;51.92;;;;;;;1.53;99.46;100415.22;1695696;84;21502;-76
2020/12/31 09:58:14;;;;;;;107.35;50.50;;;;;;;1.57;99.34;100405.06;1696463;83;21303;-77
2020/12/31 10:01:21;;;;;;;107.12;50.95;;;;;;;1.65;99.34;100398.61;1697312;84;21953;-77
2020/12/31 10:04:26;;;;;;;70.08;37.10;;;;;;;1.74;99.37;100394.32;1698004;84;21374;-76
2020/12/31 10:07:32;;;;;;;56.88;32.05;;;;;;;1.79;99.21;100388.12;1710012;82;21712;-77
2020/12/31 10:10:38;;;;;;;60.83;31.75;;;;;;;1.80;98.91;100383.09;1747922;82;21901;-77
2020/12/31 10:13:43;;;;;;;64.47;34.27;;;;;;;1.77;98.50;100376.56;1746952;82;21336;-77
2020/12/31 10:16:50;;;;;;;57.83;31.05;;;;;;;1.78;98.30;100383.18;1748208;82;21724;-78
2020/12/31 10:19:57;;;;;;;110.20;55.48;;;;;;;1.85;98.28;100380.03;1748862;82;21962;-77
2020/12/31 10:23:04;;;;;;;119.80;55.80;;;;;;;1.89;98.21;100381.52;1749781;82;21320;-76
2020/12/31 10:26:09;;;;;;;146.45;64.85;;;;;;;1.90;97.98;100368.39;1749757;82;21612;-77
2020/12/31 10:29:15;;;;;;;170.10;76.35;;;;;;;1.90;97.72;100363.00;1749042;82;21320;-76
2020/12/31 10:32:22;;;;;;;178.72;76.35;;;;;;;1.90;97.59;100358.46;1749680;82;21316;-77
2020/12/31 10:35:28;;;;;;;192.87;86.65;;;;;;;1.94;97.59;100356.39;1748461;82;21244;-78
2020/12/31 10:38:34;;;;;;;173.53;77.03;;;;;;;1.95;97.59;100352.70;1749319;82;21217;-77
2020/12/31 10:41:39;;;;;;;178.57;81.10;;;;;;;2.00;97.62;100354.55;1747994;82;21384;-77
2020/12/31 10:44:48;;;;;;;219.90;96.85;;;;;;;2.03;97.57;100351.12;1749289;82;21205;-76
2020/12/31 10:47:54;;;;;;;224.40;92.88;;;;;;;2.03;97.48;100344.38;1749481;82;21389;-77
2020/12/31 10:50:59;;;;;;;215.18;88.97;;;;;;;2.04;97.31;100332.60;1748765;82;21391;-78
2020/12/31 10:54:06;;;;;;;169.28;74.62;;;;;;;2.05;97.18;100328.92;1749747;82;21314;-77
2020/12/31 10:57:11;;;;;;;164.72;72.53;;;;;;;2.08;97.15;100329.67;1750323;82;21316;-77
2020/12/31 11:00:20;;;;;;;154.27;70.72;;;;;;;2.08;97.04;100331.02;1750054;82;21880;-77
2020/12/31 11:03:25;;;;;;;196.78;81.50;;;;;;;2.08;97.03;100326.98;1749934;82;21304;-78
2020/12/31 11:06:33;;;;;;;151.78;63.17;;;;;;;2.11;97.13;100338.36;1749864;82;21280;-76
2020/12/31 11:09:38;;;;;;;141.57;65.45;;;;;;;2.07;97.03;100332.87;1733321;82;21841;-77
2020/12/31 11:12:46;;;;;;;155.52;62.85;;;;;;;2.00;96.96;100331.13;1727399;83;21289;-77
2020/12/31 11:15:53;;;;;;;140.68;58.17;;;;;;;1.93;97.02;100320.92;1726411;83;21322;-77
2020/12/31 11:18:59;;;;;;;125.97;54.08;;;;;;;1.90;97.15;100325.23;1726267;83;21895;-77
2020/12/31 11:22:05;;;;;;;135.15;52.23;;;;;;;1.89;97.33;100326.22;1725092;83;21333;-78
2020/12/31 11:25:10;;;;;;;143.97;56.88;;;;;;;1.88;97.50;100320.43;1726251;83;21927;-77
2020/12/31 11:28:16;;;;;;;126.82;54.30;;;;;;;1.89;97.63;100316.78;1726396;83;21851;-77
2020/12/31 11:31:22;;;;;;;93.78;43.73;;;;;;;1.89;97.75;100314.94;1725921;83;21360;-77
2020/12/31 11:34:27;;;;;;;84.83;38.38;;;;;;;1.92;97.90;100318.72;1726358;83;21336;-77
2020/12/31 11:37:33;;;;;;;79.97;38.70;;;;;;;1.92;97.94;100312.47;1726394;83;21310;-77
2020/12/31 11:40:39;;;;;;;86.92;39.08;;;;;;;1.98;98.07;100322.30;1726152;83;22670;-77
2020/12/31 11:43:45;;;;;;;85.95;35.78;;;;;;;2.01;97.98;100326.58;1726421;83;21361;-77
2020/12/31 11:46:51;;;;;;;78.95;34.10;;;;;;;2.00;97.87;100319.48;1726345;83;21316;-77
2020/12/31 11:49:58;;;;;;;69.22;31.57;;;;;;;1.96;97.81;100318.85;1725072;83;21749;-77
2020/12/31 11:53:03;;;;;;;72.32;31.27;;;;;;;1.93;97.83;100320.46;1725078;83;21206;-77
2020/12/31 11:56:10;;;;;;;90.75;35.60;;;;;;;1.97;97.95;100324.61;1725960;83;21254;-77
2020/12/31 11:59:16;;;;;;;73.80;33.92;;;;;;;2.00;98.05;100323.03;1727412;83;21226;-78
2020/12/31 12:02:21;;;;;;;89.13;37.55;;;;;;;2.01;98.10;100319.34;1727350;83;21323;-76
2020/12/31 12:05:26;;;;;;;95.92;37.90;;;;;;;2.03;98.24;100313.36;1727027;83;21370;-76
2020/12/31 12:08:32;;;;;;;64.53;30.02;;;;;;;2.04;98.28;100306.12;1726416;83;21194;-77
2020/12/31 12:11:39;;;;;;;57.08;28.98;;;;;;;2.05;98.36;100314.58;1723669;83;21789;-77
2020/12/31 12:14:44;;;;;;;54.95;27.00;;;;;;;2.11;98.42;100307.83;1726467;83;21352;-76
2020/12/31 12:17:51;;;;;;;78.35;34.85;;;;;;;2.18;98.47;100313.97;1726229;83;21309;-76
2020/12/31 12:20:56;;;;;;;78.05;37.90;;;;;;;2.28;98.45;100310.89;1726339;83;21341;-77
2020/12/31 12:24:01;;;;;;;97.08;39.40;;;;;;;2.34;98.31;100311.37;1727388;83;21320;-77
2020/12/31 12:27:05;;;;;;;80.70;35.88;;;;;;;2.40;98.15;100314.92;1725677;83;21912;-76
2020/12/31 12:30:13;;;;;;;106.15;42.03;;;;;;;2.43;97.89;100309.29;1726172;83;21376;-76
2020/12/31 12:33:17;;;;;;;134.10;54.42;;;;;;;2.42;97.66;100315.19;1727351;83;21282;-76
2020/12/31 12:36:23;;;;;;;125.42;52.62;;;;;;;2.40;97.48;100308.17;1727309;83;21857;-76
2020/12/31 12:39:29;;;;;;;107.65;49.38;;;;;;;2.35;97.37;100313.95;1727372;83;21338;-76
2020/12/31 12:42:35;;;;;;;118.37;49.25;;;;;;;2.34;97.34;100305.98;1727327;83;21183;-77
2020/12/31 12:45:41;;;;;;;105.27;50.23;;;;;;;2.35;97.43;100310.39;1726966;83;21219;-77
2020/12/31 12:48:47;;;;;;;109.97;48.40;;;;;;;2.36;97.49;100308.09;1726302;83;21320;-76
2020/12/31 12:51:52;;;;;;;126.70;56.18;;;;;;;2.35;97.53;100307.69;1725996;83;21250;-76
2020/12/31 12:54:58;;;;;;;115.88;50.45;;;;;;;2.33;97.62;100306.48;1726306;83;21186;-77
2020/12/31 12:58:04;;;;;;;106.63;45.52;;;;;;;2.32;97.75;100309.31;1725361;83;21329;-76
2020/12/31 13:01:09;;;;;;;123.92;54.35;;;;;;;2.34;97.88;100314.08;1725090;83;21309;-77
2020/12/31 13:04:14;;;;;;;197.53;85.70;;;;;;;2.35;97.97;100311.74;1725069;83;21322;-77
2020/12/31 13:07:20;;;;;;;145.25;67.87;;;;;;;2.32;97.93;100306.61;1726498;83;21799;-76
2020/12/31 13:10:26;;;;;;;140.10;64.03;;;;;;;2.28;97.93;100316.79;1725885;83;21183;-76
2020/12/31 13:13:31;;;;;;;155.37;68.42;;;;;;;2.25;98.00;100305.73;1750292;82;21312;-77
2020/12/31 13:16:36;;;;;;;146.37;65.00;;;;;;;2.25;98.12;100308.92;1751349;82;21316;-77
2020/12/31 13:19:42;;;;;;;158.50;68.95;;;;;;;2.24;98.22;100305.37;1751351;82;21788;-76
2020/12/31 13:22:49;;;;;;;144.77;66.85;;;;;;;2.27;98.34;100304.28;1751342;82;21233;-76
2020/12/31 13:25:55;;;;;;;150.40;65.40;;;;;;;2.30;98.46;100304.87;1751178;82;21218;-76
2020/12/31 13:29:01;;;;;;;162.95;72.22;;;;;;;2.32;98.47;100302.06;1751112;82;21343;-77
2020/12/31 13:32:06;;;;;;;168.78;67.75;;;;;;;2.31;98.47;100294.96;1751358;82;21336;-76
2020/12/31 13:35:13;;;;;;;175.82;72.70;;;;;;;2.28;98.43;100293.35;1750194;82;21383;-77
2020/12/31 13:38:19;;;;;;;162.12;69.32;;;;;;;2.26;98.42;100287.23;1750275;82;21320;-76
2020/12/31 13:41:24;;;;;;;156.70;66.10;;;;;;;2.23;98.45;100299.61;1751364;82;21276;-76
2020/12/31 13:44:30;;;;;;;144.72;60.58;;;;;;;2.20;98.53;100298.50;1751300;82;21324;-76
2020/12/31 13:47:35;;;;;;;195.50;81.60;;;;;;;2.17;98.59;100297.91;1751340;82;21351;-76
2020/12/31 13:50:42;;;;;;;183.10;80.30;;;;;;;2.12;98.69;100291.53;1751334;82;21848;-76
2020/12/31 13:53:49;;;;;;;200.75;80.85;;;;;;;2.06;98.79;100287.95;1751352;82;21733;-76
2020/12/31 13:56:54;;;;;;;203.32;82.08;;;;;;;2.03;98.97;100285.03;1751361;82;21272;-77
2020/12/31 14:00:00;;;;;;;203.35;83.03;;;;;;;2.00;99.15;100292.00;1751206;82;21321;-76
2020/12/31 14:03:05;;;;;;;150.00;68.05;;;;;;;1.98;99.39;100293.12;1750052;82;21344;-77
2020/12/31 14:06:11;;;;;;;126.62;51.33;;;;;;;1.97;99.59;100290.03;1750359;82;21890;-76
2020/12/31 14:09:17;;;;;;;119.97;50.65;;;;;;;1.94;99.80;100286.25;1750325;82;21308;-77
2020/12/31 14:12:22;;;;;;;122.80;51.10;;;;;;;1.89;99.95;100274.97;1747953;82;21819;-77